sensor_id;sensor_type;location;lat;lon;timestamp;P1;durP1;ratioP1;P2;durP2;ratioP2
31464;SDS011;18089;47.428;15.006;2022-12-18T00:02:05;28.37;;;24.87;;
31464;SDS011;18089;47.428;15.006;2022-12-18T00:04:37;29.47;;;25.60;;
31464;SDS011;18089;47.428;15.006;2022-12-18T00:07:09;32.23;;;25.00;;
31464;SDS011;18089;47.428;15.006;2022-12-18T00:09:41;34.70;;;26.53;;
31464;SDS011;18089;47.428;15.006;2022-12-18T00:12:13;34.40;;;28.43;;
31464;SDS011;18089;47.428;15.006;2022-12-18T00:14:45;35.23;;;27.37;;
31464;SDS011;18089;47.428;15.006;2022-12-18T00:17:18;39.00;;;28.37;;
31464;SDS011;18089;47.428;15.006;2022-12-18T00:19:51;39.23;;;28.60;;
31464;SDS011;18089;47.428;15.006;2022-12-18T00:22:23;34.67;;;26.20;;
31464;SDS011;18089;47.428;15.006;2022-12-18T00:24:55;28.57;;;25.57;;
31464;SDS011;18089;47.428;15.006;2022-12-18T00:27:27;32.87;;;27.87;;
31464;SDS011;18089;47.428;15.006;2022-12-18T00:29:59;49.80;;;30.50;;
31464;SDS011;18089;47.428;15.006;2022-12-18T00:32:32;31.17;;;27.67;;
31464;SDS011;18089;47.428;15.006;2022-12-18T00:35:04;28.70;;;24.30;;
31464;SDS011;18089;47.428;15.006;2022-12-18T00:37:37;27.00;;;24.40;;
31464;SDS011;18089;47.428;15.006;2022-12-18T00:40:10;25.60;;;23.23;;
31464;SDS011;18089;47.428;15.006;2022-12-18T00:42:42;25.37;;;23.07;;
31464;SDS011;18089;47.428;15.006;2022-12-18T00:45:34;24.80;;;22.47;;
31464;SDS011;18089;47.428;15.006;2022-12-18T00:48:07;23.03;;;21.13;;
31464;SDS011;18089;47.428;15.006;2022-12-18T00:50:39;25.53;;;23.37;;
31464;SDS011;18089;47.428;15.006;2022-12-18T00:53:11;24.43;;;22.57;;
31464;SDS011;18089;47.428;15.006;2022-12-18T00:55:44;22.97;;;20.93;;
31464;SDS011;18089;47.428;15.006;2022-12-18T00:58:17;22.60;;;20.57;;
31464;SDS011;18089;47.428;15.006;2022-12-18T01:00:49;22.13;;;20.20;;
31464;SDS011;18089;47.428;15.006;2022-12-18T01:03:23;20.50;;;18.73;;
31464;SDS011;18089;47.428;15.006;2022-12-18T01:05:55;21.37;;;19.57;;
31464;SDS011;18089;47.428;15.006;2022-12-18T01:08:27;21.77;;;19.97;;
31464;SDS011;18089;47.428;15.006;2022-12-18T01:10:59;22.07;;;20.27;;
31464;SDS011;18089;47.428;15.006;2022-12-18T01:13:31;21.23;;;19.63;;
31464;SDS011;18089;47.428;15.006;2022-12-18T01:16:03;20.97;;;19.27;;
31464;SDS011;18089;47.428;15.006;2022-12-18T01:18:37;20.70;;;19.00;;
31464;SDS011;18089;47.428;15.006;2022-12-18T01:21:10;21.63;;;20.17;;
31464;SDS011;18089;47.428;15.006;2022-12-18T01:23:43;23.20;;;21.10;;
31464;SDS011;18089;47.428;15.006;2022-12-18T01:26:16;22.13;;;20.33;;
31464;SDS011;18089;47.428;15.006;2022-12-18T01:28:48;21.87;;;20.17;;
31464;SDS011;18089;47.428;15.006;2022-12-18T01:31:21;21.47;;;19.60;;
31464;SDS011;18089;47.428;15.006;2022-12-18T01:33:55;21.37;;;19.60;;
31464;SDS011;18089;47.428;15.006;2022-12-18T01:36:28;21.80;;;19.77;;
31464;SDS011;18089;47.428;15.006;2022-12-18T01:39:03;21.77;;;20.17;;
31464;SDS011;18089;47.428;15.006;2022-12-18T01:41:36;21.50;;;19.77;;
31464;SDS011;18089;47.428;15.006;2022-12-18T01:44:50;22.63;;;20.83;;
31464;SDS011;18089;47.428;15.006;2022-12-18T01:47:32;22.83;;;20.77;;
31464;SDS011;18089;47.428;15.006;2022-12-18T01:50:10;22.20;;;20.33;;
31464;SDS011;18089;47.428;15.006;2022-12-18T01:52:46;23.33;;;21.23;;
31464;SDS011;18089;47.428;15.006;2022-12-18T01:55:20;22.37;;;20.57;;
31464;SDS011;18089;47.428;15.006;2022-12-18T01:57:57;22.70;;;20.90;;
31464;SDS011;18089;47.428;15.006;2022-12-18T02:00:30;23.80;;;21.73;;
31464;SDS011;18089;47.428;15.006;2022-12-18T02:03:02;21.93;;;20.37;;
31464;SDS011;18089;47.428;15.006;2022-12-18T02:05:40;19.13;;;17.57;;
31464;SDS011;18089;47.428;15.006;2022-12-18T02:08:16;20.53;;;19.03;;
31464;SDS011;18089;47.428;15.006;2022-12-18T02:10:54;20.63;;;19.13;;
31464;SDS011;18089;47.428;15.006;2022-12-18T02:13:32;21.27;;;19.53;;
31464;SDS011;18089;47.428;15.006;2022-12-18T02:16:10;20.13;;;18.43;;
31464;SDS011;18089;47.428;15.006;2022-12-18T02:18:47;21.07;;;19.37;;
31464;SDS011;18089;47.428;15.006;2022-12-18T02:21:25;19.97;;;18.67;;
31464;SDS011;18089;47.428;15.006;2022-12-18T02:24:06;20.93;;;19.43;;
31464;SDS011;18089;47.428;15.006;2022-12-18T02:26:49;20.37;;;19.00;;
31464;SDS011;18089;47.428;15.006;2022-12-18T02:29:22;21.20;;;19.43;;
31464;SDS011;18089;47.428;15.006;2022-12-18T02:31:57;19.30;;;17.87;;
31464;SDS011;18089;47.428;15.006;2022-12-18T02:34:31;18.50;;;17.10;;
31464;SDS011;18089;47.428;15.006;2022-12-18T02:37:05;20.20;;;18.63;;
31464;SDS011;18089;47.428;15.006;2022-12-18T02:39:39;22.27;;;20.40;;
31464;SDS011;18089;47.428;15.006;2022-12-18T02:42:14;22.47;;;20.23;;
31464;SDS011;18089;47.428;15.006;2022-12-18T02:44:48;23.77;;;20.67;;
31464;SDS011;18089;47.428;15.006;2022-12-18T02:47:22;25.70;;;21.93;;
31464;SDS011;18089;47.428;15.006;2022-12-18T02:49:57;23.27;;;21.20;;
31464;SDS011;18089;47.428;15.006;2022-12-18T02:52:35;21.63;;;19.70;;
31464;SDS011;18089;47.428;15.006;2022-12-18T02:55:18;23.83;;;21.70;;
31464;SDS011;18089;47.428;15.006;2022-12-18T02:57:55;24.07;;;21.63;;
31464;SDS011;18089;47.428;15.006;2022-12-18T03:00:30;22.90;;;20.63;;
31464;SDS011;18089;47.428;15.006;2022-12-18T03:03:05;22.60;;;20.83;;
31464;SDS011;18089;47.428;15.006;2022-12-18T03:05:43;22.00;;;20.17;;
31464;SDS011;18089;47.428;15.006;2022-12-18T03:08:25;20.53;;;18.80;;
31464;SDS011;18089;47.428;15.006;2022-12-18T03:11:00;22.13;;;20.53;;
31464;SDS011;18089;47.428;15.006;2022-12-18T03:13:35;22.60;;;20.70;;
31464;SDS011;18089;47.428;15.006;2022-12-18T03:16:10;23.80;;;21.53;;
31464;SDS011;18089;47.428;15.006;2022-12-18T03:18:45;23.07;;;21.10;;
31464;SDS011;18089;47.428;15.006;2022-12-18T03:21:20;23.30;;;21.27;;
31464;SDS011;18089;47.428;15.006;2022-12-18T03:23:54;24.23;;;21.67;;
31464;SDS011;18089;47.428;15.006;2022-12-18T03:26:27;22.03;;;20.33;;
31464;SDS011;18089;47.428;15.006;2022-12-18T03:29:02;23.17;;;20.87;;
31464;SDS011;18089;47.428;15.006;2022-12-18T03:31:37;22.70;;;20.80;;
31464;SDS011;18089;47.428;15.006;2022-12-18T03:34:12;21.70;;;19.83;;
31464;SDS011;18089;47.428;15.006;2022-12-18T03:36:45;22.43;;;20.23;;
31464;SDS011;18089;47.428;15.006;2022-12-18T03:39:18;21.80;;;19.43;;
31464;SDS011;18089;47.428;15.006;2022-12-18T03:41:51;22.23;;;20.37;;
31464;SDS011;18089;47.428;15.006;2022-12-18T03:44:28;21.03;;;19.20;;
31464;SDS011;18089;47.428;15.006;2022-12-18T03:47:04;21.93;;;20.33;;
31464;SDS011;18089;47.428;15.006;2022-12-18T03:49:38;20.57;;;19.10;;
31464;SDS011;18089;47.428;15.006;2022-12-18T03:52:13;20.23;;;18.67;;
31464;SDS011;18089;47.428;15.006;2022-12-18T03:54:48;20.37;;;19.07;;
31464;SDS011;18089;47.428;15.006;2022-12-18T03:57:22;21.53;;;19.83;;
31464;SDS011;18089;47.428;15.006;2022-12-18T03:59:59;20.17;;;18.77;;
31464;SDS011;18089;47.428;15.006;2022-12-18T04:02:34;20.87;;;19.17;;
31464;SDS011;18089;47.428;15.006;2022-12-18T04:05:07;23.00;;;21.20;;
31464;SDS011;18089;47.428;15.006;2022-12-18T04:07:40;20.90;;;19.30;;
31464;SDS011;18089;47.428;15.006;2022-12-18T04:10:13;19.90;;;18.70;;
31464;SDS011;18089;47.428;15.006;2022-12-18T04:12:49;20.60;;;19.30;;
31464;SDS011;18089;47.428;15.006;2022-12-18T04:15:23;20.40;;;18.90;;
31464;SDS011;18089;47.428;15.006;2022-12-18T04:17:55;22.37;;;20.87;;
31464;SDS011;18089;47.428;15.006;2022-12-18T04:20:27;20.00;;;18.73;;
31464;SDS011;18089;47.428;15.006;2022-12-18T04:22:59;21.07;;;19.67;;
31464;SDS011;18089;47.428;15.006;2022-12-18T04:25:31;21.47;;;20.00;;
31464;SDS011;18089;47.428;15.006;2022-12-18T04:28:03;22.90;;;21.20;;
31464;SDS011;18089;47.428;15.006;2022-12-18T04:30:36;20.87;;;19.53;;
31464;SDS011;18089;47.428;15.006;2022-12-18T04:33:09;20.80;;;19.50;;
31464;SDS011;18089;47.428;15.006;2022-12-18T04:35:41;21.43;;;20.03;;
31464;SDS011;18089;47.428;15.006;2022-12-18T04:38:13;21.37;;;20.03;;
31464;SDS011;18089;47.428;15.006;2022-12-18T04:40:45;21.87;;;20.57;;
31464;SDS011;18089;47.428;15.006;2022-12-18T04:43:17;21.93;;;20.53;;
31464;SDS011;18089;47.428;15.006;2022-12-18T04:45:51;20.93;;;18.87;;
31464;SDS011;18089;47.428;15.006;2022-12-18T04:48:23;20.67;;;19.23;;
31464;SDS011;18089;47.428;15.006;2022-12-18T04:50:55;20.93;;;19.73;;
31464;SDS011;18089;47.428;15.006;2022-12-18T04:53:27;21.27;;;19.77;;
31464;SDS011;18089;47.428;15.006;2022-12-18T04:56:03;23.30;;;21.67;;
31464;SDS011;18089;47.428;15.006;2022-12-18T04:58:36;20.87;;;19.47;;
31464;SDS011;18089;47.428;15.006;2022-12-18T05:01:10;20.60;;;19.30;;
31464;SDS011;18089;47.428;15.006;2022-12-18T05:03:43;21.70;;;20.27;;
31464;SDS011;18089;47.428;15.006;2022-12-18T05:06:15;20.87;;;19.33;;
31464;SDS011;18089;47.428;15.006;2022-12-18T05:08:47;21.40;;;19.70;;
31464;SDS011;18089;47.428;15.006;2022-12-18T05:11:19;22.07;;;20.57;;
31464;SDS011;18089;47.428;15.006;2022-12-18T05:13:51;22.67;;;20.93;;
31464;SDS011;18089;47.428;15.006;2022-12-18T05:16:24;23.43;;;21.43;;
31464;SDS011;18089;47.428;15.006;2022-12-18T05:18:56;21.77;;;20.27;;
31464;SDS011;18089;47.428;15.006;2022-12-18T05:21:29;21.87;;;20.27;;
31464;SDS011;18089;47.428;15.006;2022-12-18T05:24:01;22.90;;;20.97;;
31464;SDS011;18089;47.428;15.006;2022-12-18T05:26:33;23.83;;;21.97;;
31464;SDS011;18089;47.428;15.006;2022-12-18T05:29:05;23.87;;;21.87;;
31464;SDS011;18089;47.428;15.006;2022-12-18T05:31:38;22.47;;;20.67;;
31464;SDS011;18089;47.428;15.006;2022-12-18T05:34:10;21.73;;;20.10;;
31464;SDS011;18089;47.428;15.006;2022-12-18T05:36:42;24.13;;;22.23;;
31464;SDS011;18089;47.428;15.006;2022-12-18T05:39:14;21.83;;;20.43;;
31464;SDS011;18089;47.428;15.006;2022-12-18T05:41:47;21.10;;;19.87;;
31464;SDS011;18089;47.428;15.006;2022-12-18T05:44:19;22.13;;;20.43;;
31464;SDS011;18089;47.428;15.006;2022-12-18T05:46:52;22.37;;;20.63;;
31464;SDS011;18089;47.428;15.006;2022-12-18T05:49:25;21.57;;;20.07;;
31464;SDS011;18089;47.428;15.006;2022-12-18T05:51:57;22.47;;;20.73;;
31464;SDS011;18089;47.428;15.006;2022-12-18T05:54:29;22.30;;;20.60;;
31464;SDS011;18089;47.428;15.006;2022-12-18T05:57:01;22.37;;;20.73;;
31464;SDS011;18089;47.428;15.006;2022-12-18T05:59:33;23.77;;;22.13;;
31464;SDS011;18089;47.428;15.006;2022-12-18T06:02:07;22.50;;;20.70;;
31464;SDS011;18089;47.428;15.006;2022-12-18T06:04:39;22.73;;;20.93;;
31464;SDS011;18089;47.428;15.006;2022-12-18T06:07:11;22.93;;;20.63;;
31464;SDS011;18089;47.428;15.006;2022-12-18T06:09:43;23.97;;;22.10;;
31464;SDS011;18089;47.428;15.006;2022-12-18T06:12:15;22.57;;;20.47;;
31464;SDS011;18089;47.428;15.006;2022-12-18T06:14:47;23.53;;;21.27;;
31464;SDS011;18089;47.428;15.006;2022-12-18T06:17:20;23.00;;;20.90;;
31464;SDS011;18089;47.428;15.006;2022-12-18T06:19:52;24.57;;;22.00;;
31464;SDS011;18089;47.428;15.006;2022-12-18T06:22:24;25.33;;;22.70;;
31464;SDS011;18089;47.428;15.006;2022-12-18T06:24:56;22.83;;;21.00;;
31464;SDS011;18089;47.428;15.006;2022-12-18T06:27:29;22.20;;;20.50;;
31464;SDS011;18089;47.428;15.006;2022-12-18T06:30:02;23.33;;;21.13;;
31464;SDS011;18089;47.428;15.006;2022-12-18T06:32:37;24.27;;;22.30;;
31464;SDS011;18089;47.428;15.006;2022-12-18T06:35:09;22.37;;;20.77;;
31464;SDS011;18089;47.428;15.006;2022-12-18T06:37:41;22.23;;;20.67;;
31464;SDS011;18089;47.428;15.006;2022-12-18T06:40:13;23.00;;;21.20;;
31464;SDS011;18089;47.428;15.006;2022-12-18T06:42:45;21.77;;;20.07;;
31464;SDS011;18089;47.428;15.006;2022-12-18T06:45:17;24.40;;;22.57;;
31464;SDS011;18089;47.428;15.006;2022-12-18T06:47:50;25.03;;;23.03;;
31464;SDS011;18089;47.428;15.006;2022-12-18T06:50:22;23.17;;;21.47;;
31464;SDS011;18089;47.428;15.006;2022-12-18T06:52:54;23.63;;;21.77;;
31464;SDS011;18089;47.428;15.006;2022-12-18T06:55:26;24.47;;;22.57;;
31464;SDS011;18089;47.428;15.006;2022-12-18T06:57:58;25.93;;;23.73;;
31464;SDS011;18089;47.428;15.006;2022-12-18T07:00:30;25.00;;;22.63;;
31464;SDS011;18089;47.428;15.006;2022-12-18T07:03:04;25.07;;;22.67;;
31464;SDS011;18089;47.428;15.006;2022-12-18T07:05:39;24.43;;;22.00;;
31464;SDS011;18089;47.428;15.006;2022-12-18T07:08:11;25.97;;;23.60;;
31464;SDS011;18089;47.428;15.006;2022-12-18T07:10:43;34.73;;;26.23;;
31464;SDS011;18089;47.428;15.006;2022-12-18T07:13:15;30.33;;;25.53;;
31464;SDS011;18089;47.428;15.006;2022-12-18T07:15:47;34.80;;;27.53;;
31464;SDS011;18089;47.428;15.006;2022-12-18T07:18:21;33.33;;;26.00;;
31464;SDS011;18089;47.428;15.006;2022-12-18T07:20:53;29.13;;;25.47;;
31464;SDS011;18089;47.428;15.006;2022-12-18T07:23:25;34.07;;;27.97;;
31464;SDS011;18089;47.428;15.006;2022-12-18T07:26:00;36.43;;;28.17;;
31464;SDS011;18089;47.428;15.006;2022-12-18T07:28:33;31.93;;;26.93;;
31464;SDS011;18089;47.428;15.006;2022-12-18T07:31:06;32.77;;;26.93;;
31464;SDS011;18089;47.428;15.006;2022-12-18T07:33:40;37.57;;;30.40;;
31464;SDS011;18089;47.428;15.006;2022-12-18T07:36:12;44.40;;;31.67;;
31464;SDS011;18089;47.428;15.006;2022-12-18T07:38:46;41.60;;;30.47;;
31464;SDS011;18089;47.428;15.006;2022-12-18T07:41:18;37.23;;;30.47;;
31464;SDS011;18089;47.428;15.006;2022-12-18T07:43:51;39.60;;;30.53;;
31464;SDS011;18089;47.428;15.006;2022-12-18T07:46:23;41.73;;;32.57;;
31464;SDS011;18089;47.428;15.006;2022-12-18T07:48:56;42.23;;;32.13;;
31464;SDS011;18089;47.428;15.006;2022-12-18T07:51:28;48.50;;;33.80;;
31464;SDS011;18089;47.428;15.006;2022-12-18T07:54:00;48.27;;;33.20;;
31464;SDS011;18089;47.428;15.006;2022-12-18T07:56:32;41.27;;;32.03;;
31464;SDS011;18089;47.428;15.006;2022-12-18T07:59:04;40.60;;;31.70;;
31464;SDS011;18089;47.428;15.006;2022-12-18T08:01:36;42.47;;;31.03;;
31464;SDS011;18089;47.428;15.006;2022-12-18T08:04:10;61.37;;;35.63;;
31464;SDS011;18089;47.428;15.006;2022-12-18T08:06:42;50.30;;;34.37;;
31464;SDS011;18089;47.428;15.006;2022-12-18T08:09:14;53.93;;;34.53;;
31464;SDS011;18089;47.428;15.006;2022-12-18T08:11:46;38.07;;;28.90;;
31464;SDS011;18089;47.428;15.006;2022-12-18T08:14:18;39.53;;;30.03;;
31464;SDS011;18089;47.428;15.006;2022-12-18T08:16:50;39.63;;;30.07;;
31464;SDS011;18089;47.428;15.006;2022-12-18T08:19:23;48.50;;;31.20;;
31464;SDS011;18089;47.428;15.006;2022-12-18T08:21:55;53.60;;;34.17;;
31464;SDS011;18089;47.428;15.006;2022-12-18T08:24:28;39.33;;;29.20;;
31464;SDS011;18089;47.428;15.006;2022-12-18T08:27:00;41.17;;;29.53;;
31464;SDS011;18089;47.428;15.006;2022-12-18T08:29:32;42.13;;;30.63;;
31464;SDS011;18089;47.428;15.006;2022-12-18T08:32:04;41.60;;;31.10;;
31464;SDS011;18089;47.428;15.006;2022-12-18T08:34:37;49.37;;;32.57;;
31464;SDS011;18089;47.428;15.006;2022-12-18T08:37:09;53.63;;;32.83;;
31464;SDS011;18089;47.428;15.006;2022-12-18T08:39:41;57.47;;;34.00;;
31464;SDS011;18089;47.428;15.006;2022-12-18T08:42:13;68.80;;;36.77;;
31464;SDS011;18089;47.428;15.006;2022-12-18T08:45:11;58.97;;;36.90;;
31464;SDS011;18089;47.428;15.006;2022-12-18T08:47:43;48.60;;;32.47;;
31464;SDS011;18089;47.428;15.006;2022-12-18T08:50:17;49.10;;;31.13;;
31464;SDS011;18089;47.428;15.006;2022-12-18T08:52:50;47.80;;;29.93;;
31464;SDS011;18089;47.428;15.006;2022-12-18T08:55:22;39.40;;;28.50;;
31464;SDS011;18089;47.428;15.006;2022-12-18T08:57:55;48.93;;;30.87;;
31464;SDS011;18089;47.428;15.006;2022-12-18T09:00:27;39.03;;;27.93;;
31464;SDS011;18089;47.428;15.006;2022-12-18T09:02:59;29.80;;;26.07;;
31464;SDS011;18089;47.428;15.006;2022-12-18T09:05:33;33.20;;;26.57;;
31464;SDS011;18089;47.428;15.006;2022-12-18T09:08:05;30.63;;;26.00;;
31464;SDS011;18089;47.428;15.006;2022-12-18T09:10:41;33.83;;;26.17;;
31464;SDS011;18089;47.428;15.006;2022-12-18T09:13:14;37.07;;;26.93;;
31464;SDS011;18089;47.428;15.006;2022-12-18T09:15:47;42.23;;;29.27;;
31464;SDS011;18089;47.428;15.006;2022-12-18T09:18:23;46.07;;;31.87;;
31464;SDS011;18089;47.428;15.006;2022-12-18T09:20:56;77.80;;;44.70;;
31464;SDS011;18089;47.428;15.006;2022-12-18T09:23:28;41.17;;;28.97;;
31464;SDS011;18089;47.428;15.006;2022-12-18T09:26:00;37.53;;;25.87;;
31464;SDS011;18089;47.428;15.006;2022-12-18T09:28:33;28.83;;;23.43;;
31464;SDS011;18089;47.428;15.006;2022-12-18T09:31:05;29.57;;;23.03;;
31464;SDS011;18089;47.428;15.006;2022-12-18T09:33:38;27.63;;;24.63;;
31464;SDS011;18089;47.428;15.006;2022-12-18T09:36:13;28.07;;;23.63;;
31464;SDS011;18089;47.428;15.006;2022-12-18T09:38:46;27.60;;;23.10;;
31464;SDS011;18089;47.428;15.006;2022-12-18T09:41:33;29.30;;;23.77;;
31464;SDS011;18089;47.428;15.006;2022-12-18T09:44:14;25.47;;;21.70;;
31464;SDS011;18089;47.428;15.006;2022-12-18T09:46:51;25.57;;;22.00;;
31464;SDS011;18089;47.428;15.006;2022-12-18T09:49:28;29.40;;;22.27;;
31464;SDS011;18089;47.428;15.006;2022-12-18T09:52:03;21.23;;;17.70;;
31464;SDS011;18089;47.428;15.006;2022-12-18T09:54:40;21.27;;;19.03;;
31464;SDS011;18089;47.428;15.006;2022-12-18T09:57:14;22.00;;;19.83;;
31464;SDS011;18089;47.428;15.006;2022-12-18T09:59:48;28.47;;;22.67;;
31464;SDS011;18089;47.428;15.006;2022-12-18T10:02:23;24.03;;;20.33;;
31464;SDS011;18089;47.428;15.006;2022-12-18T10:05:00;22.17;;;19.87;;
31464;SDS011;18089;47.428;15.006;2022-12-18T10:07:47;19.00;;;17.30;;
31464;SDS011;18089;47.428;15.006;2022-12-18T10:10:29;20.40;;;18.47;;
31464;SDS011;18089;47.428;15.006;2022-12-18T10:13:09;21.70;;;19.70;;
31464;SDS011;18089;47.428;15.006;2022-12-18T10:15:48;22.63;;;18.97;;
31464;SDS011;18089;47.428;15.006;2022-12-18T10:18:36;20.03;;;18.13;;
31464;SDS011;18089;47.428;15.006;2022-12-18T10:21:29;16.70;;;15.40;;
31464;SDS011;18089;47.428;15.006;2022-12-18T10:24:08;19.57;;;17.87;;
31464;SDS011;18089;47.428;15.006;2022-12-18T10:26:46;19.37;;;17.53;;
31464;SDS011;18089;47.428;15.006;2022-12-18T10:29:18;19.80;;;18.00;;
31464;SDS011;18089;47.428;15.006;2022-12-18T10:31:51;18.83;;;17.23;;
31464;SDS011;18089;47.428;15.006;2022-12-18T10:34:23;19.37;;;17.60;;
31464;SDS011;18089;47.428;15.006;2022-12-18T10:36:55;18.90;;;17.20;;
31464;SDS011;18089;47.428;15.006;2022-12-18T10:39:29;17.73;;;16.13;;
31464;SDS011;18089;47.428;15.006;2022-12-18T10:42:09;18.33;;;16.43;;
31464;SDS011;18089;47.428;15.006;2022-12-18T10:44:43;18.67;;;16.90;;
31464;SDS011;18089;47.428;15.006;2022-12-18T10:47:15;17.60;;;16.10;;
31464;SDS011;18089;47.428;15.006;2022-12-18T10:49:50;19.30;;;17.43;;
31464;SDS011;18089;47.428;15.006;2022-12-18T10:52:25;37.30;;;28.47;;
31464;SDS011;18089;47.428;15.006;2022-12-18T10:55:01;19.40;;;17.20;;
31464;SDS011;18089;47.428;15.006;2022-12-18T10:57:35;17.33;;;15.43;;
31464;SDS011;18089;47.428;15.006;2022-12-18T11:02:56;19.60;;;17.77;;
31464;SDS011;18089;47.428;15.006;2022-12-18T11:05:29;19.50;;;17.50;;
31464;SDS011;18089;47.428;15.006;2022-12-18T11:08:02;18.00;;;16.33;;
31464;SDS011;18089;47.428;15.006;2022-12-18T11:10:37;19.27;;;17.43;;
31464;SDS011;18089;47.428;15.006;2022-12-18T11:13:11;19.70;;;17.87;;
31464;SDS011;18089;47.428;15.006;2022-12-18T11:15:47;20.37;;;18.17;;
31464;SDS011;18089;47.428;15.006;2022-12-18T11:18:20;19.83;;;17.80;;
31464;SDS011;18089;47.428;15.006;2022-12-18T11:20:56;17.50;;;15.70;;
31464;SDS011;18089;47.428;15.006;2022-12-18T11:23:30;18.73;;;16.97;;
31464;SDS011;18089;47.428;15.006;2022-12-18T11:26:04;17.50;;;15.70;;
31464;SDS011;18089;47.428;15.006;2022-12-18T11:28:37;18.30;;;16.60;;
31464;SDS011;18089;47.428;15.006;2022-12-18T11:31:15;17.97;;;16.27;;
31464;SDS011;18089;47.428;15.006;2022-12-18T11:34:03;18.47;;;16.73;;
31464;SDS011;18089;47.428;15.006;2022-12-18T11:36:38;21.67;;;18.63;;
31464;SDS011;18089;47.428;15.006;2022-12-18T11:39:13;17.97;;;16.00;;
31464;SDS011;18089;47.428;15.006;2022-12-18T11:41:50;16.77;;;15.27;;
31464;SDS011;18089;47.428;15.006;2022-12-18T11:44:45;17.50;;;15.77;;
31464;SDS011;18089;47.428;15.006;2022-12-18T11:47:21;17.07;;;14.80;;
31464;SDS011;18089;47.428;15.006;2022-12-18T11:50:00;17.10;;;15.38;;
31464;SDS011;18089;47.428;15.006;2022-12-18T11:52:33;15.10;;;13.63;;
31464;SDS011;18089;47.428;15.006;2022-12-18T11:55:10;14.85;;;12.80;;
31464;SDS011;18089;47.428;15.006;2022-12-18T11:57:48;14.32;;;12.02;;
31464;SDS011;18089;47.428;15.006;2022-12-18T12:00:25;35.47;;;21.02;;
31464;SDS011;18089;47.428;15.006;2022-12-18T12:03:06;17.27;;;13.57;;
31464;SDS011;18089;47.428;15.006;2022-12-18T12:05:56;13.80;;;12.40;;
31464;SDS011;18089;47.428;15.006;2022-12-18T12:08:38;17.45;;;14.52;;
31464;SDS011;18089;47.428;15.006;2022-12-18T12:11:19;17.87;;;15.87;;
31464;SDS011;18089;47.428;15.006;2022-12-18T12:13:59;19.50;;;17.43;;
31464;SDS011;18089;47.428;15.006;2022-12-18T12:16:43;17.60;;;15.80;;
31464;SDS011;18089;47.428;15.006;2022-12-18T12:19:23;16.73;;;14.93;;
31464;SDS011;18089;47.428;15.006;2022-12-18T12:22:07;18.13;;;14.83;;
31464;SDS011;18089;47.428;15.006;2022-12-18T12:24:48;18.77;;;15.50;;
31464;SDS011;18089;47.428;15.006;2022-12-18T12:27:30;17.00;;;15.37;;
31464;SDS011;18089;47.428;15.006;2022-12-18T12:30:09;18.40;;;16.47;;
31464;SDS011;18089;47.428;15.006;2022-12-18T12:32:45;19.27;;;15.27;;
31464;SDS011;18089;47.428;15.006;2022-12-18T12:35:29;15.40;;;14.00;;
31464;SDS011;18089;47.428;15.006;2022-12-18T12:38:08;16.08;;;14.23;;
31464;SDS011;18089;47.428;15.006;2022-12-18T12:40:44;15.98;;;14.38;;
31464;SDS011;18089;47.428;15.006;2022-12-18T12:43:21;16.47;;;14.93;;
31464;SDS011;18089;47.428;15.006;2022-12-18T12:46:05;17.33;;;15.73;;
31464;SDS011;18089;47.428;15.006;2022-12-18T12:48:40;17.50;;;15.90;;
31464;SDS011;18089;47.428;15.006;2022-12-18T12:51:16;16.93;;;15.33;;
31464;SDS011;18089;47.428;15.006;2022-12-18T12:53:50;17.60;;;15.70;;
31464;SDS011;18089;47.428;15.006;2022-12-18T12:56:24;20.20;;;18.20;;
31464;SDS011;18089;47.428;15.006;2022-12-18T12:59:00;17.37;;;15.60;;
31464;SDS011;18089;47.428;15.006;2022-12-18T13:01:38;17.63;;;15.73;;
31464;SDS011;18089;47.428;15.006;2022-12-18T13:04:15;18.40;;;16.20;;
31464;SDS011;18089;47.428;15.006;2022-12-18T13:06:53;18.80;;;17.00;;
31464;SDS011;18089;47.428;15.006;2022-12-18T13:09:30;18.83;;;16.93;;
31464;SDS011;18089;47.428;15.006;2022-12-18T13:12:03;18.07;;;16.27;;
31464;SDS011;18089;47.428;15.006;2022-12-18T13:15:01;18.83;;;14.93;;
31464;SDS011;18089;47.428;15.006;2022-12-18T13:17:45;18.97;;;16.97;;
31464;SDS011;18089;47.428;15.006;2022-12-18T13:20:17;18.23;;;16.40;;
31464;SDS011;18089;47.428;15.006;2022-12-18T13:22:49;17.87;;;16.00;;
31464;SDS011;18089;47.428;15.006;2022-12-18T13:25:28;18.00;;;15.95;;
31464;SDS011;18089;47.428;15.006;2022-12-18T13:28:02;17.50;;;15.65;;
31464;SDS011;18089;47.428;15.006;2022-12-18T13:30:51;18.43;;;16.57;;
31464;SDS011;18089;47.428;15.006;2022-12-18T13:36:27;19.33;;;17.43;;
31464;SDS011;18089;47.428;15.006;2022-12-18T13:39:10;19.47;;;17.37;;
31464;SDS011;18089;47.428;15.006;2022-12-18T13:45:38;34.20;;;24.20;;
31464;SDS011;18089;47.428;15.006;2022-12-18T13:48:18;19.30;;;17.60;;
31464;SDS011;18089;47.428;15.006;2022-12-18T13:50:57;19.13;;;17.30;;
31464;SDS011;18089;47.428;15.006;2022-12-18T13:53:36;19.80;;;18.07;;
31464;SDS011;18089;47.428;15.006;2022-12-18T13:56:10;18.93;;;17.20;;
31464;SDS011;18089;47.428;15.006;2022-12-18T14:01:55;18.90;;;17.30;;
31464;SDS011;18089;47.428;15.006;2022-12-18T14:04:28;19.80;;;17.80;;
31464;SDS011;18089;47.428;15.006;2022-12-18T14:07:03;19.97;;;18.07;;
31464;SDS011;18089;47.428;15.006;2022-12-18T14:09:37;19.93;;;18.00;;
31464;SDS011;18089;47.428;15.006;2022-12-18T14:12:14;20.47;;;18.47;;
31464;SDS011;18089;47.428;15.006;2022-12-18T14:15:06;20.77;;;18.87;;
31464;SDS011;18089;47.428;15.006;2022-12-18T14:17:46;20.93;;;18.97;;
31464;SDS011;18089;47.428;15.006;2022-12-18T14:20:18;20.90;;;18.90;;
31464;SDS011;18089;47.428;15.006;2022-12-18T14:22:52;21.47;;;19.23;;
31464;SDS011;18089;47.428;15.006;2022-12-18T14:25:26;21.80;;;19.70;;
31464;SDS011;18089;47.428;15.006;2022-12-18T14:28:02;20.77;;;18.87;;
31464;SDS011;18089;47.428;15.006;2022-12-18T14:30:39;19.87;;;17.97;;
31464;SDS011;18089;47.428;15.006;2022-12-18T14:33:12;21.30;;;19.27;;
31464;SDS011;18089;47.428;15.006;2022-12-18T14:35:52;20.57;;;18.77;;
31464;SDS011;18089;47.428;15.006;2022-12-18T14:38:30;20.87;;;19.00;;
31464;SDS011;18089;47.428;15.006;2022-12-18T14:41:04;19.87;;;18.17;;
31464;SDS011;18089;47.428;15.006;2022-12-18T14:43:37;20.10;;;18.30;;
31464;SDS011;18089;47.428;15.006;2022-12-18T14:46:25;173.20;;;75.73;;
31464;SDS011;18089;47.428;15.006;2022-12-18T14:49:03;27.17;;;23.10;;
31464;SDS011;18089;47.428;15.006;2022-12-18T14:51:36;20.27;;;18.27;;
31464;SDS011;18089;47.428;15.006;2022-12-18T14:54:14;22.43;;;20.20;;
31464;SDS011;18089;47.428;15.006;2022-12-18T14:56:48;20.73;;;18.77;;
31464;SDS011;18089;47.428;15.006;2022-12-18T14:59:22;22.80;;;20.57;;
31464;SDS011;18089;47.428;15.006;2022-12-18T15:02:01;21.50;;;19.53;;
31464;SDS011;18089;47.428;15.006;2022-12-18T15:04:36;21.67;;;19.67;;
31464;SDS011;18089;47.428;15.006;2022-12-18T15:07:11;22.30;;;20.03;;